createdAt,value
2022-11-29T00:01:05.070Z,14.83
2022-11-29T00:03:33.804Z,10.60
2022-11-29T00:06:06.102Z,11.10
2022-11-29T00:08:34.343Z,10.10
2022-11-29T00:11:06.447Z,12.43
2022-11-29T00:13:34.348Z,10.17
2022-11-29T00:16:08.451Z,10.43
2022-11-29T00:18:36.535Z,11.53
2022-11-29T00:21:06.861Z,10.53
2022-11-29T00:23:34.997Z,11.10
2022-11-29T00:26:06.450Z,13.47
2022-11-29T00:28:34.453Z,10.77
2022-11-29T00:31:02.644Z,11.67
2022-11-29T00:33:31.975Z,11.03
2022-11-29T00:36:02.492Z,10.10
2022-11-29T00:38:30.440Z,13.07
2022-11-29T00:40:58.348Z,10.43
2022-11-29T00:43:26.319Z,12.97
2022-11-29T00:45:54.261Z,11.40
2022-11-29T00:48:22.187Z,11.43
2022-11-29T00:50:51.508Z,11.50
2022-11-29T00:53:19.455Z,11.60
2022-11-29T00:55:49.349Z,12.10
2022-11-29T00:58:17.272Z,9.77
2022-11-29T01:00:45.241Z,13.93
2022-11-29T01:03:13.234Z,11.57
2022-11-29T01:05:41.437Z,12.93
2022-11-29T01:08:11.127Z,10.60
2022-11-29T01:10:39.169Z,10.67
2022-11-29T01:13:07.088Z,11.00
2022-11-29T01:15:35.181Z,12.03
2022-11-29T01:18:03.180Z,10.53
2022-11-29T01:20:31.338Z,11.03
2022-11-29T01:22:59.832Z,12.40
2022-11-29T01:25:29.417Z,12.93
2022-11-29T01:27:57.361Z,10.17
2022-11-29T01:30:25.849Z,13.97
2022-11-29T01:32:53.729Z,13.70
2022-11-29T01:35:21.787Z,10.93
2022-11-29T01:37:49.709Z,10.13
2022-11-29T01:40:18.201Z,9.87
2022-11-29T01:42:47.538Z,12.40
2022-11-29T01:45:23.141Z,11.63
2022-11-29T01:47:53.616Z,12.30
2022-11-29T01:50:21.882Z,13.33
2022-11-29T01:52:50.053Z,11.37
2022-11-29T01:55:18.264Z,13.00
2022-11-29T01:57:48.798Z,16.33
2022-11-29T02:00:19.145Z,12.23
2022-11-29T02:02:50.901Z,11.90
2022-11-29T02:05:20.142Z,11.60
2022-11-29T02:07:50.173Z,15.10
2022-11-29T02:10:18.706Z,11.00
2022-11-29T02:12:55.800Z,13.37
2022-11-29T02:15:33.746Z,12.47
2022-11-29T02:18:06.690Z,14.17
2022-11-29T02:21:05.392Z,12.90
2022-11-29T02:23:48.580Z,13.23
2022-11-29T02:26:26.747Z,13.13
2022-11-29T02:29:16.481Z,17.23
2022-11-29T02:32:19.993Z,14.13
2022-11-29T02:35:01.792Z,15.20
2022-11-29T02:37:49.229Z,13.17
2022-11-29T02:40:35.785Z,12.40
2022-11-29T02:43:16.106Z,12.53
2022-11-29T02:45:57.983Z,13.90
2022-11-29T02:48:42.273Z,16.33
2022-11-29T02:51:15.500Z,18.30
2022-11-29T02:53:47.833Z,17.07
2022-11-29T02:56:23.516Z,13.87
2022-11-29T02:58:54.236Z,17.37
2022-11-29T03:01:27.158Z,22.40
2022-11-29T03:04:01.942Z,15.53
2022-11-29T03:06:38.589Z,27.30
2022-11-29T03:09:10.020Z,20.23
2022-11-29T03:11:42.853Z,16.17
2022-11-29T03:14:16.595Z,22.17
2022-11-29T03:16:48.564Z,19.90
2022-11-29T03:19:32.443Z,23.40
2022-11-29T03:22:12.585Z,18.63
2022-11-29T03:24:45.926Z,18.37
2022-11-29T03:27:16.258Z,19.60
2022-11-29T03:29:47.962Z,21.67
2022-11-29T03:32:19.624Z,15.33
2022-11-29T03:34:57.544Z,19.43
2022-11-29T03:37:29.752Z,18.33
2022-11-29T03:40:00.984Z,23.53
2022-11-29T03:42:32.665Z,21.47
2022-11-29T03:45:05.279Z,17.57
2022-11-29T03:47:36.480Z,19.33
2022-11-29T03:50:07.273Z,23.50
2022-11-29T03:52:40.116Z,25.27
2022-11-29T03:55:20.585Z,20.17
2022-11-29T03:57:56.828Z,23.63
2022-11-29T04:00:25.128Z,19.10
2022-11-29T04:03:15.313Z,22.50
2022-11-29T04:05:57.691Z,21.60
2022-11-29T04:09:10.373Z,22.83
2022-11-29T04:11:59.834Z,27.53
2022-11-29T04:14:32.787Z,23.37
2022-11-29T04:17:50.206Z,23.17
2022-11-29T04:20:37.704Z,27.37
2022-11-29T04:23:51.042Z,23.53
2022-11-29T04:26:39.349Z,23.97
2022-11-29T04:29:16.420Z,23.37
2022-11-29T04:32:00.292Z,25.77
2022-11-29T04:34:40.949Z,24.30
2022-11-29T04:37:40.839Z,22.43
2022-11-29T04:40:24.164Z,25.23
2022-11-29T04:43:16.153Z,23.40
2022-11-29T04:46:05.377Z,22.57
2022-11-29T04:48:59.127Z,29.63
2022-11-29T04:51:38.060Z,26.57
2022-11-29T04:54:11.264Z,26.93
2022-11-29T04:56:44.552Z,24.37
2022-11-29T04:59:16.829Z,24.40
2022-11-29T05:01:55.521Z,26.00
2022-11-29T05:04:27.616Z,34.33
2022-11-29T05:07:03.095Z,26.33
2022-11-29T05:09:42.778Z,23.80
2022-11-29T05:12:19.544Z,25.47
2022-11-29T05:15:01.581Z,25.10
2022-11-29T05:17:38.642Z,23.07
2022-11-29T05:20:34.554Z,22.43
2022-11-29T05:23:13.495Z,29.60
2022-11-29T05:25:44.892Z,26.17
2022-11-29T05:28:21.348Z,28.13
2022-11-29T05:31:01.706Z,27.00
2022-11-29T05:33:42.533Z,27.73
2022-11-29T05:36:16.505Z,25.33
2022-11-29T05:39:00.644Z,32.07
2022-11-29T05:41:47.898Z,25.97
2022-11-29T05:44:20.978Z,28.73
2022-11-29T05:46:56.133Z,26.10
2022-11-29T05:49:32.226Z,32.90
2022-11-29T05:52:24.527Z,25.70
2022-11-29T05:55:03.604Z,25.83
2022-11-29T05:57:38.645Z,26.03
2022-11-29T06:00:11.083Z,24.80
2022-11-29T06:02:47.693Z,27.57
2022-11-29T06:05:24.059Z,25.23
2022-11-29T06:07:55.195Z,25.90
2022-11-29T06:10:26.294Z,27.40
2022-11-29T06:13:05.269Z,26.60
2022-11-29T06:15:56.733Z,30.17
2022-11-29T06:18:39.235Z,24.73
2022-11-29T06:21:16.436Z,25.43
2022-11-29T06:24:03.031Z,25.10
2022-11-29T06:26:44.966Z,26.07
2022-11-29T06:29:25.288Z,28.37
2022-11-29T06:31:58.516Z,24.23
2022-11-29T06:34:32.601Z,25.67
2022-11-29T06:37:05.750Z,29.13
2022-11-29T06:39:34.199Z,31.73
2022-11-29T06:42:02.111Z,26.70
2022-11-29T06:44:30.492Z,26.27
2022-11-29T06:47:04.369Z,25.70
2022-11-29T06:49:34.417Z,27.97
2022-11-29T06:52:12.876Z,27.20
2022-11-29T06:54:49.702Z,29.83
2022-11-29T06:57:21.933Z,26.47
2022-11-29T07:00:02.474Z,28.23
2022-11-29T07:02:47.907Z,26.90
2022-11-29T07:05:23.044Z,28.93
2022-11-29T07:07:51.557Z,32.40
2022-11-29T07:10:20.997Z,29.03
2022-11-29T07:12:50.921Z,26.73
2022-11-29T07:15:21.064Z,29.50
2022-11-29T07:18:04.937Z,27.40
2022-11-29T07:20:38.415Z,26.43
2022-11-29T07:23:17.920Z,26.27
2022-11-29T07:25:53.275Z,29.37
2022-11-29T07:28:31.393Z,29.77
2022-11-29T07:31:04.111Z,28.33
2022-11-29T07:33:42.033Z,24.37
2022-11-29T07:36:15.135Z,29.47
2022-11-29T07:38:51.952Z,34.40
2022-11-29T07:41:23.496Z,28.90
2022-11-29T07:43:57.441Z,27.67
2022-11-29T07:46:25.633Z,30.70
2022-11-29T07:48:55.037Z,30.57
2022-11-29T07:51:22.945Z,30.00
2022-11-29T07:53:50.960Z,30.00
2022-11-29T07:56:18.938Z,28.87
2022-11-29T07:58:47.042Z,27.13
2022-11-29T08:01:15.192Z,29.60
2022-11-29T08:03:43.431Z,25.70
2022-11-29T08:06:12.789Z,34.63
2022-11-29T08:08:44.024Z,30.27
2022-11-29T08:11:12.616Z,31.90
2022-11-29T08:13:40.508Z,31.37
2022-11-29T08:16:08.897Z,31.70
2022-11-29T08:18:37.448Z,29.23
2022-11-29T08:21:07.178Z,28.93
2022-11-29T08:23:36.511Z,31.87
2022-11-29T08:26:04.913Z,35.90
2022-11-29T08:28:32.799Z,30.93
2022-11-29T08:31:04.728Z,24.63
2022-11-29T08:33:32.655Z,31.43
2022-11-29T08:36:06.201Z,33.90
2022-11-29T08:38:34.191Z,33.47
2022-11-29T08:41:03.861Z,30.53
2022-11-29T08:43:32.429Z,30.00
2022-11-29T08:46:00.640Z,34.53
2022-11-29T08:48:28.825Z,26.83
2022-11-29T08:50:57.475Z,30.77
2022-11-29T08:53:39.720Z,31.13
2022-11-29T08:56:49.408Z,33.57
2022-11-29T08:58:57.601Z,32.80
2022-11-29T09:01:25.590Z,31.83
2022-11-29T09:04:03.612Z,32.47
2022-11-29T09:06:33.077Z,29.23
2022-11-29T09:09:02.035Z,35.73
2022-11-29T09:11:32.421Z,30.97
2022-11-29T09:14:02.146Z,32.23
2022-11-29T09:16:34.135Z,38.63
2022-11-29T09:19:02.121Z,35.13
2022-11-29T09:21:31.828Z,31.17
2022-11-29T09:24:00.829Z,31.13
2022-11-29T09:26:32.767Z,34.13
2022-11-29T09:29:02.266Z,34.10
2022-11-29T09:31:31.097Z,31.43
2022-11-29T09:33:59.506Z,30.60
2022-11-29T09:36:29.238Z,33.50
2022-11-29T09:38:57.418Z,35.87
2022-11-29T09:41:53.081Z,33.50
2022-11-29T09:44:27.480Z,29.70
2022-11-29T09:47:02.226Z,38.33
2022-11-29T09:49:55.384Z,36.20
2022-11-29T09:52:34.265Z,27.70
2022-11-29T09:55:06.601Z,32.23
2022-11-29T09:57:35.873Z,34.07
2022-11-29T10:00:07.197Z,35.67
2022-11-29T10:02:40.297Z,31.67
2022-11-29T10:05:12.370Z,32.03
2022-11-29T10:07:44.757Z,31.67
2022-11-29T10:10:16.512Z,36.10
2022-11-29T10:12:48.631Z,36.53
2022-11-29T10:15:19.584Z,33.80
2022-11-29T10:17:51.013Z,39.60
2022-11-29T10:20:20.900Z,31.67
2022-11-29T10:22:54.587Z,38.23
2022-11-29T10:25:26.646Z,38.97
2022-11-29T10:27:56.044Z,35.20
2022-11-29T10:30:24.069Z,38.57
2022-11-29T10:32:56.427Z,34.33
2022-11-29T10:35:24.905Z,29.00
2022-11-29T10:38:28.639Z,37.23
2022-11-29T10:40:47.374Z,32.23
2022-11-29T10:43:16.657Z,31.77
2022-11-29T10:45:50.558Z,35.90
2022-11-29T10:48:21.613Z,36.83
2022-11-29T10:50:51.537Z,33.33
2022-11-29T10:53:21.533Z,33.57
2022-11-29T10:55:51.826Z,33.23
2022-11-29T10:58:27.941Z,35.70
2022-11-29T11:00:58.419Z,29.60
2022-11-29T11:03:37.523Z,29.37
2022-11-29T11:06:11.248Z,31.17
2022-11-29T11:08:40.495Z,32.60
2022-11-29T11:11:08.797Z,32.90
2022-11-29T11:13:39.342Z,35.53
2022-11-29T11:16:15.412Z,35.30
2022-11-29T11:18:43.599Z,32.20
2022-11-29T11:21:13.483Z,33.73
2022-11-29T11:23:47.072Z,29.63
2022-11-29T11:26:15.955Z,33.03
2022-11-29T11:28:51.116Z,34.33
2022-11-29T11:31:27.791Z,32.50
2022-11-29T11:33:55.819Z,34.90
2022-11-29T11:36:24.841Z,29.27
2022-11-29T11:38:54.357Z,30.23
2022-11-29T11:41:44.607Z,30.70
2022-11-29T11:44:46.524Z,36.07
2022-11-29T11:47:18.737Z,28.47
2022-11-29T11:49:51.812Z,31.03
2022-11-29T11:52:22.365Z,31.00
2022-11-29T11:54:53.147Z,32.17
2022-11-29T11:57:22.233Z,32.23
2022-11-29T11:59:54.277Z,45.23
2022-11-29T12:02:27.654Z,32.23
2022-11-29T12:04:56.573Z,31.83
2022-11-29T12:08:05.645Z,34.57
2022-11-29T12:10:24.075Z,35.00
2022-11-29T12:12:53.867Z,29.57
2022-11-29T12:15:27.130Z,31.50
2022-11-29T12:17:59.931Z,33.03
2022-11-29T12:20:29.707Z,30.00
2022-11-29T12:23:21.069Z,34.57
2022-11-29T12:25:53.388Z,30.50
2022-11-29T12:28:29.362Z,36.67
2022-11-29T12:31:06.962Z,33.13
2022-11-29T12:33:40.528Z,30.57
2022-11-29T12:36:18.476Z,34.73
2022-11-29T12:38:58.803Z,29.77
2022-11-29T12:41:36.233Z,33.93
2022-11-29T12:44:13.748Z,31.83
2022-11-29T12:46:44.628Z,34.73
2022-11-29T12:49:19.203Z,33.73
2022-11-29T12:51:52.361Z,30.10
2022-11-29T12:54:39.031Z,33.73
2022-11-29T12:57:11.109Z,36.67
2022-11-29T12:59:52.230Z,30.30
2022-11-29T13:02:28.498Z,33.87
2022-11-29T13:05:03.425Z,30.93
2022-11-29T13:07:36.958Z,31.00
2022-11-29T13:10:18.070Z,33.10
2022-11-29T13:12:48.815Z,32.50
2022-11-29T13:15:18.152Z,32.10
2022-11-29T13:17:52.533Z,31.73
2022-11-29T13:20:28.096Z,29.00
2022-11-29T13:22:58.442Z,33.93
2022-11-29T13:25:30.432Z,32.33
2022-11-29T13:28:00.186Z,32.53
2022-11-29T13:30:28.125Z,31.80
2022-11-29T13:33:00.610Z,35.73
2022-11-29T13:35:32.561Z,33.87
2022-11-29T13:38:03.648Z,33.03
2022-11-29T13:40:37.734Z,31.67
2022-11-29T13:43:13.181Z,36.17
2022-11-29T13:45:44.391Z,31.27
2022-11-29T13:48:36.877Z,32.33
2022-11-29T13:51:29.021Z,29.53
2022-11-29T13:53:58.563Z,32.57
2022-11-29T13:56:29.846Z,34.83
2022-11-29T13:58:59.017Z,33.93
2022-11-29T14:01:27.682Z,31.77
2022-11-29T14:04:08.518Z,31.10
2022-11-29T14:06:37.288Z,31.57
2022-11-29T14:09:25.151Z,29.63
2022-11-29T14:12:01.644Z,34.30
2022-11-29T14:14:33.781Z,33.13
2022-11-29T14:17:02.840Z,32.80
2022-11-29T14:19:34.192Z,33.37
2022-11-29T14:22:22.491Z,36.70
2022-11-29T14:24:58.990Z,33.57
2022-11-29T14:28:02.241Z,31.00
2022-11-29T14:30:45.822Z,34.27
2022-11-29T14:33:26.846Z,30.07
2022-11-29T14:36:05.447Z,36.50
2022-11-29T14:38:40.029Z,31.07
2022-11-29T14:41:20.659Z,32.63
2022-11-29T14:43:48.599Z,35.97
2022-11-29T14:46:29.436Z,34.13
2022-11-29T14:49:02.273Z,31.10
2022-11-29T14:51:33.153Z,34.23
2022-11-29T14:54:07.735Z,37.13
2022-11-29T14:56:42.369Z,35.83
2022-11-29T14:59:47.070Z,38.00
2022-11-29T15:02:33.462Z,32.93
2022-11-29T15:05:13.549Z,35.13
2022-11-29T15:07:46.729Z,35.63
2022-11-29T15:10:20.772Z,31.73
2022-11-29T15:12:49.572Z,27.43
2022-11-29T15:15:36.702Z,38.13
2022-11-29T15:18:18.093Z,34.67
2022-11-29T15:20:56.050Z,31.47
2022-11-29T15:23:25.330Z,31.40
2022-11-29T15:25:54.422Z,37.57
2022-11-29T15:28:24.584Z,33.00
2022-11-29T15:31:02.674Z,34.37
2022-11-29T15:33:30.767Z,37.53
2022-11-29T15:36:06.397Z,32.33
2022-11-29T15:38:45.173Z,32.87
2022-11-29T15:41:24.370Z,31.63
2022-11-29T15:43:54.607Z,34.70
2022-11-29T15:46:25.961Z,34.73
2022-11-29T15:48:54.188Z,31.97
2022-11-29T15:51:28.175Z,34.00
2022-11-29T15:54:12.259Z,34.80
2022-11-29T15:56:44.047Z,32.73
2022-11-29T15:59:17.928Z,32.30
2022-11-29T16:01:47.823Z,33.43
2022-11-29T16:04:19.863Z,34.07
2022-11-29T16:06:48.793Z,33.97
2022-11-29T16:09:19.877Z,32.20
2022-11-29T16:11:48.292Z,35.00
2022-11-29T16:14:19.363Z,38.93
2022-11-29T16:16:48.856Z,33.80
2022-11-29T16:19:24.488Z,32.67
2022-11-29T16:22:04.383Z,30.73
2022-11-29T16:24:35.013Z,39.40
2022-11-29T16:27:03.156Z,37.67
2022-11-29T16:29:32.260Z,32.63
2022-11-29T16:32:00.316Z,33.97
2022-11-29T16:34:30.675Z,35.47
2022-11-29T16:37:12.616Z,35.00
2022-11-29T16:39:46.756Z,33.53
2022-11-29T16:42:24.684Z,33.97
2022-11-29T16:45:24.233Z,32.10
2022-11-29T16:47:58.126Z,35.27
2022-11-29T16:50:26.660Z,32.57
2022-11-29T16:52:56.789Z,38.97
2022-11-29T16:55:26.548Z,34.60
2022-11-29T16:57:54.452Z,36.13
2022-11-29T17:00:30.654Z,33.40
2022-11-29T17:02:59.088Z,35.13
2022-11-29T17:05:27.147Z,38.30
2022-11-29T17:07:55.246Z,32.63
2022-11-29T17:10:25.457Z,32.30
2022-11-29T17:12:54.753Z,37.87
2022-11-29T17:15:22.692Z,34.80
2022-11-29T17:17:50.613Z,38.00
2022-11-29T17:20:18.565Z,38.70
2022-11-29T17:22:46.463Z,34.07
2022-11-29T17:25:14.429Z,34.90
2022-11-29T17:27:42.300Z,39.67
2022-11-29T17:30:12.886Z,31.73
2022-11-29T17:32:40.851Z,40.23
2022-11-29T17:35:09.137Z,36.63
2022-11-29T17:37:37.051Z,36.73
2022-11-29T17:40:05.368Z,34.33
2022-11-29T17:42:33.271Z,37.97
2022-11-29T17:45:01.164Z,33.90
2022-11-29T17:47:30.451Z,36.57
2022-11-29T17:49:58.925Z,36.33
2022-11-29T17:52:26.807Z,35.13
2022-11-29T17:54:54.717Z,39.67
2022-11-29T17:57:22.592Z,38.27
2022-11-29T17:59:50.500Z,34.13
2022-11-29T18:02:18.451Z,36.50
2022-11-29T18:04:47.809Z,34.07
2022-11-29T18:07:17.225Z,34.23
2022-11-29T18:09:46.778Z,42.40
2022-11-29T18:12:14.961Z,37.50
2022-11-29T18:14:42.842Z,33.53
2022-11-29T18:17:10.818Z,36.00
2022-11-29T18:19:38.776Z,32.17
2022-11-29T18:22:08.675Z,36.93
2022-11-29T18:24:36.585Z,37.77
2022-11-29T18:27:04.675Z,35.43
2022-11-29T18:29:37.625Z,39.37
2022-11-29T18:32:07.107Z,32.77
2022-11-29T18:34:35.032Z,43.17
2022-11-29T18:37:02.940Z,36.97
2022-11-29T18:39:32.202Z,35.40
2022-11-29T18:42:00.123Z,37.97
2022-11-29T18:44:29.542Z,33.10
2022-11-29T18:46:57.825Z,37.20
2022-11-29T18:49:25.739Z,36.97
2022-11-29T18:51:53.655Z,40.57
2022-11-29T18:54:21.517Z,38.30
2022-11-29T18:56:51.677Z,34.77
2022-11-29T18:59:19.630Z,46.63
2022-11-29T19:01:49.058Z,34.23
2022-11-29T19:04:18.202Z,35.00
2022-11-29T19:06:46.125Z,33.30
2022-11-29T19:09:15.387Z,41.30
2022-11-29T19:11:43.815Z,36.13
2022-11-29T19:14:14.069Z,39.73
2022-11-29T19:16:43.392Z,42.17
2022-11-29T19:19:11.450Z,42.73
2022-11-29T19:21:40.357Z,38.87
2022-11-29T19:24:14.063Z,39.90
2022-11-29T19:26:44.276Z,37.20
2022-11-29T19:29:13.876Z,36.53
2022-11-29T19:31:42.573Z,35.00
2022-11-29T19:34:10.876Z,37.07
2022-11-29T19:36:43.003Z,40.93
2022-11-29T19:39:12.285Z,44.57
2022-11-29T19:41:40.301Z,39.43
2022-11-29T19:44:09.076Z,37.70
2022-11-29T19:46:40.187Z,39.23
2022-11-29T19:49:10.536Z,35.60
2022-11-29T19:51:39.036Z,35.40
2022-11-29T19:54:08.916Z,42.63
2022-11-29T19:56:37.080Z,39.23
2022-11-29T19:59:05.261Z,33.90
2022-11-29T20:01:40.117Z,34.03
2022-11-29T20:04:11.169Z,35.10
2022-11-29T20:06:39.232Z,39.20
2022-11-29T20:09:07.611Z,35.97
2022-11-29T20:11:35.637Z,46.33
2022-11-29T20:14:04.704Z,39.17
2022-11-29T20:16:32.800Z,43.90
2022-11-29T20:19:01.769Z,39.13
2022-11-29T20:21:33.803Z,35.73
2022-11-29T20:24:03.941Z,45.33
2022-11-29T20:26:33.779Z,35.17
2022-11-29T20:29:02.343Z,37.40
2022-11-29T20:31:30.840Z,36.60
2022-11-29T20:33:59.169Z,35.90
2022-11-29T20:36:37.703Z,36.80
2022-11-29T20:39:11.860Z,49.03
2022-11-29T20:41:43.309Z,35.37
2022-11-29T20:44:12.254Z,49.30
2022-11-29T20:46:40.452Z,38.07
2022-11-29T20:49:09.752Z,37.47
2022-11-29T20:51:43.108Z,42.03
2022-11-29T20:54:11.590Z,39.97
2022-11-29T20:56:39.518Z,38.63
2022-11-29T20:59:07.415Z,38.70
2022-11-29T21:01:35.623Z,36.83
2022-11-29T21:04:03.625Z,36.67
2022-11-29T21:06:34.398Z,41.53
2022-11-29T21:09:03.738Z,40.33
2022-11-29T21:11:32.228Z,37.23
2022-11-29T21:14:03.482Z,34.50
2022-11-29T21:16:32.465Z,44.30
2022-11-29T21:19:02.945Z,43.60
2022-11-29T21:21:34.991Z,39.90
2022-11-29T21:24:12.474Z,39.70
2022-11-29T21:26:42.980Z,39.87
2022-11-29T21:29:17.241Z,41.23
2022-11-29T21:31:45.985Z,40.30
2022-11-29T21:34:13.987Z,42.57
2022-11-29T21:36:42.169Z,40.03
2022-11-29T21:39:14.288Z,45.20
2022-11-29T21:41:42.213Z,46.90
2022-11-29T21:44:10.093Z,38.33
2022-11-29T21:46:38.185Z,43.17
2022-11-29T21:49:06.235Z,40.33
2022-11-29T21:51:34.908Z,36.63
2022-11-29T21:54:03.151Z,42.30
2022-11-29T21:56:32.599Z,45.50
2022-11-29T21:59:00.519Z,38.83
2022-11-29T22:01:29.553Z,46.23
2022-11-29T22:03:57.521Z,37.97
2022-11-29T22:06:26.334Z,42.50
2022-11-29T22:08:54.323Z,43.83
2022-11-29T22:11:31.760Z,51.53
2022-11-29T22:14:15.781Z,42.33
2022-11-29T22:16:45.371Z,43.57
2022-11-29T22:19:14.688Z,50.27
2022-11-29T22:21:44.304Z,42.67
2022-11-29T22:24:13.338Z,47.47
2022-11-29T22:26:42.700Z,53.30
2022-11-29T22:29:14.033Z,47.43
2022-11-29T22:31:42.148Z,50.50
2022-11-29T22:34:10.139Z,48.10
2022-11-29T22:36:38.896Z,50.67
2022-11-29T22:39:07.226Z,55.67
2022-11-29T22:41:36.401Z,51.70
2022-11-29T22:44:04.865Z,43.77
2022-11-29T22:46:35.507Z,48.13
2022-11-29T22:49:03.533Z,45.63
2022-11-29T22:51:32.932Z,50.03
2022-11-29T22:54:02.439Z,58.80
2022-11-29T22:56:32.360Z,50.50
2022-11-29T22:59:00.308Z,51.90
2022-11-29T23:01:29.676Z,46.27
2022-11-29T23:04:00.408Z,44.93
2022-11-29T23:06:29.760Z,54.37
2022-11-29T23:08:59.202Z,43.40
2022-11-29T23:11:29.503Z,49.10
2022-11-29T23:13:57.484Z,48.90
2022-11-29T23:16:26.733Z,50.17
2022-11-29T23:18:55.409Z,49.70
2022-11-29T23:21:26.196Z,46.97
2022-11-29T23:23:56.574Z,51.87
2022-11-29T23:26:26.091Z,45.17
2022-11-29T23:28:54.536Z,63.07
2022-11-29T23:31:23.679Z,54.07
2022-11-29T23:33:51.665Z,50.30
2022-11-29T23:36:20.097Z,48.57
2022-11-29T23:38:49.406Z,50.17
2022-11-29T23:41:17.317Z,49.57
2022-11-29T23:43:45.223Z,43.90
2022-11-29T23:46:15.545Z,60.40
2022-11-29T23:48:43.578Z,50.60
2022-11-29T23:51:12.255Z,51.43
2022-11-29T23:53:40.548Z,58.03
2022-11-29T23:56:13.289Z,46.10
2022-11-29T23:58:41.680Z,45.53
